Time;durP1;ratioP1;P1;durP2;ratioP2;P2;SDS_P1;SDS_P2;PMS_P1;PMS_P2;Temp;Humidity;BMP_temperature;BMP_pressure;BME280_temperature;BME280_humidity;BME280_pressure;Samples;Min_cycle;Max_cycle;Signal;HPM_P1;HPM_P2
2022/12/29 00:00:25;;;;;;;2.85;1.55;;;;;;;3.87;100.00;95575.88;1021958;29;20497;-69
2022/12/29 00:00:55;;;;;;;3.25;1.35;;;;;;;3.87;100.00;95575.88;1021968;29;20027;-71
2022/12/29 00:01:26;;;;;;;3.97;1.33;;;;;;;3.82;100.00;95573.16;1016851;29;20032;-69
2022/12/29 00:01:56;;;;;;;3.03;1.30;;;;;;;3.81;100.00;95581.19;1020778;28;20414;-68
2022/12/29 00:02:27;;;;;;;2.58;1.10;;;;;;;3.80;100.00;95580.41;1021539;28;20098;-68
2022/12/29 00:02:57;;;;;;;3.20;1.27;;;;;;;3.78;100.00;95574.63;1021874;28;20023;-71
2022/12/29 00:03:27;;;;;;;2.65;1.40;;;;;;;3.78;100.00;95572.03;1021875;29;20457;-70
2022/12/29 00:03:58;;;;;;;2.85;1.10;;;;;;;3.68;100.00;95561.41;1012625;29;20084;-68
2022/12/29 00:04:28;;;;;;;1.88;1.20;;;;;;;3.71;100.00;95566.94;1014003;29;20115;-68
2022/12/29 00:04:59;;;;;;;3.67;1.40;;;;;;;3.69;100.00;95575.97;1014339;29;20027;-69
2022/12/29 00:05:29;;;;;;;5.13;1.35;;;;;;;3.66;100.00;95568.66;1016207;28;21149;-70
2022/12/29 00:06:00;;;;;;;2.55;1.40;;;;;;;3.64;100.00;95575.84;1021913;29;20035;-69
2022/12/29 00:06:31;;;;;;;1.92;1.17;;;;;;;3.61;100.00;95578.88;1021741;29;20039;-70
2022/12/29 00:07:04;;;;;;;3.80;1.65;;;;;;;3.57;100.00;95575.16;1021860;29;20354;-69
2022/12/29 00:07:34;;;;;;;2.15;1.02;;;;;;;3.60;100.00;95580.69;1022397;29;20031;-69
2022/12/29 00:08:05;;;;;;;4.32;1.63;;;;;;;3.61;100.00;95581.47;1024971;28;20294;-69
2022/12/29 00:08:41;;;;;;;3.17;1.55;;;;;;;3.59;100.00;95573.94;1025849;28;20528;-69
2022/12/29 00:09:12;;;;;;;1.98;1.35;;;;;;;3.58;100.00;95581.91;1025950;28;20084;-69
2022/12/29 00:09:42;;;;;;;1.58;1.42;;;;;;;3.53;100.00;95575.59;1026106;28;20723;-67
2022/12/29 00:10:13;;;;;;;2.33;1.33;;;;;;;3.54;100.00;95572.00;1022267;29;20266;-70
2022/12/29 00:10:43;;;;;;;1.38;0.93;;;;;;;3.52;100.00;95568.03;1023964;28;20393;-69
2022/12/29 00:11:19;;;;;;;2.67;1.63;;;;;;;3.51;100.00;95569.03;1021968;29;20023;-68
2022/12/29 00:11:50;;;;;;;2.47;1.02;;;;;;;3.60;100.00;95580.69;1022929;28;20023;-69
2022/12/29 00:12:20;;;;;;;2.35;1.25;;;;;;;3.60;100.00;95572.13;1022105;29;20263;-67
2022/12/29 00:15:38;;;;;;;1.52;0.98;;;;;;;3.54;100.00;95569.41;1018095;29;20287;-68
2022/12/29 00:16:08;;;;;;;1.75;1.10;;;;;;;3.50;100.00;95559.69;1021042;29;20274;-68
2022/12/29 00:16:42;;;;;;;3.05;1.48;;;;;;;3.53;100.00;95570.41;1013829;29;20350;-68
2022/12/29 00:17:13;;;;;;;2.30;1.35;;;;;;;3.51;100.00;95569.84;1010575;29;20530;-69
2022/12/29 00:17:43;;;;;;;2.08;1.52;;;;;;;3.49;100.00;95569.28;1014852;29;20272;-68
2022/12/29 00:18:14;;;;;;;1.98;1.17;;;;;;;3.43;100.00;95549.41;1015323;29;20012;-69
2022/12/29 00:18:44;;;;;;;1.95;1.00;;;;;;;3.50;100.00;95565.66;1014127;29;20024;-68
2022/12/29 00:35:07;;;;;;;3.60;1.00;;;;;;;3.81;100.00;95561.22;1022049;29;20271;-68
2022/12/29 00:35:39;;;;;;;1.17;1.08;;;;;;;4.01;100.00;95560.88;1024854;28;20274;-67
2022/12/29 00:36:22;;;;;;;1.10;0.90;;;;;;;3.99;100.00;95555.13;1018135;29;20269;-68
2022/12/29 00:36:52;;;;;;;1.67;0.98;;;;;;;3.97;100.00;95555.34;1014149;29;20268;-67
2022/12/29 00:44:04;;;;;;;2.25;1.00;;;;;;;3.98;100.00;95564.72;1018027;29;20734;-68
2022/12/29 00:44:07;;;;;;;4.53;0.90;;;;;;;4.24;100.00;95560.88;1023059;28;20269;-68
2022/12/29 00:44:37;;;;;;;0.77;0.60;;;;;;;4.30;100.00;95569.59;1017903;29;20322;-68
2022/12/29 00:45:08;;;;;;;1.05;0.70;;;;;;;4.29;100.00;95567.19;1017986;29;20322;-66
2022/12/29 00:45:43;;;;;;;0.88;0.80;;;;;;;4.23;100.00;95558.53;1017707;29;20030;-69
2022/12/29 00:46:13;;;;;;;1.30;0.73;;;;;;;4.37;100.00;95559.88;1016243;29;20144;-69
2022/12/29 00:46:43;;;;;;;1.63;1.00;;;;;;;4.38;100.00;95564.03;1021876;29;20344;-67
2022/12/29 00:47:14;;;;;;;2.03;0.90;;;;;;;4.27;100.00;95554.47;1018137;29;20077;-68
2022/12/29 00:47:44;;;;;;;1.63;1.20;;;;;;;4.33;100.00;95563.94;1018680;29;20469;-68
2022/12/29 00:48:15;;;;;;;2.47;0.88;;;;;;;4.35;100.00;95564.50;1014267;29;20024;-71
2022/12/29 00:49:31;;;;;;;1.05;0.63;;;;;;;4.44;100.00;95562.34;1013950;29;20027;-69
2022/12/29 00:49:36;;;;;;;1.65;0.63;;;;;;;4.38;100.00;95571.81;1015616;29;20115;-68
2022/12/29 00:50:07;;;;;;;3.10;1.00;;;;;;;4.40;100.00;95563.81;1017329;29;20866;-68
2022/12/29 00:50:37;;;;;;;1.48;0.80;;;;;;;4.40;100.00;95567.22;1018080;29;20020;-68
2022/12/29 00:51:08;;;;;;;1.35;0.90;;;;;;;4.38;100.00;95569.22;1011506;29;20020;-67
2022/12/29 00:51:38;;;;;;;0.95;0.70;;;;;;;4.36;100.00;95570.47;1006401;29;20096;-70
2022/12/29 00:52:11;;;;;;;1.45;1.05;;;;;;;4.27;100.00;95558.88;1013264;29;20028;-68
2022/12/29 00:52:41;;;;;;;1.17;0.85;;;;;;;4.30;100.00;95566.22;1014512;29;20012;-69
2022/12/29 00:53:11;;;;;;;1.58;0.70;;;;;;;4.30;100.00;95564.41;1010695;29;21225;-68
2022/12/29 00:53:42;;;;;;;2.13;1.10;;;;;;;4.31;100.00;95565.97;1015933;29;20024;-67
2022/12/29 00:54:13;;;;;;;1.52;0.60;;;;;;;4.31;100.00;95565.97;1014320;29;20027;-68
2022/12/29 00:54:44;;;;;;;1.30;0.70;;;;;;;4.28;100.00;95569.00;1014071;29;20470;-69
2022/12/29 00:55:15;;;;;;;1.75;0.70;;;;;;;4.30;100.00;95563.59;1014795;29;20016;-68
2022/12/29 00:55:45;;;;;;;2.92;0.65;;;;;;;4.28;100.00;95565.63;1017154;29;20271;-68
2022/12/29 00:56:16;;;;;;;0.80;0.63;;;;;;;4.23;100.00;95561.91;1014437;29;20024;-68
2022/12/29 00:56:47;;;;;;;1.33;0.77;;;;;;;4.14;100.00;95565.06;1018319;29;20019;-69
2022/12/29 00:57:18;;;;;;;1.60;0.80;;;;;;;4.17;100.00;95569.81;1021813;28;20018;-68
2022/12/29 00:57:48;;;;;;;1.38;0.70;;;;;;;4.15;100.00;95566.66;1018085;29;20262;-68
2022/12/29 00:58:18;;;;;;;1.10;0.80;;;;;;;4.17;100.00;95569.81;1022124;29;20051;-69
2022/12/29 00:58:49;;;;;;;1.17;0.60;;;;;;;4.12;100.00;95567.88;1021836;29;20027;-69
2022/12/29 00:59:20;;;;;;;4.40;0.80;;;;;;;4.10;100.00;95566.53;1018101;29;20477;-69
2022/12/29 00:59:50;;;;;;;1.42;1.08;;;;;;;4.19;100.00;95563.38;1010108;29;20031;-68
2022/12/29 01:00:20;;;;;;;2.08;0.77;;;;;;;4.15;100.00;95574.44;1013922;29;20024;-68
2022/12/29 01:00:51;;;;;;;1.70;0.85;;;;;;;4.12;100.00;95569.69;1018243;29;20016;-69
2022/12/29 01:01:21;;;;;;;3.33;1.00;;;;;;;4.10;100.00;95569.94;1009947;29;20020;-72
2022/12/29 01:01:52;;;;;;;1.88;0.80;;;;;;;4.11;100.00;95570.72;1010201;29;20031;-68
2022/12/29 01:02:23;;;;;;;6.78;1.00;;;;;;;4.13;100.00;95573.88;1013524;29;20181;-68
2022/12/29 01:02:53;;;;;;;2.38;1.00;;;;;;;4.08;100.00;95574.53;1014247;29;20072;-71
2022/12/29 01:03:24;;;;;;;0.50;0.50;;;;;;;4.06;100.00;95574.00;1018120;29;20032;-68
2022/12/29 01:03:54;;;;;;;1.67;0.75;;;;;;;4.04;100.00;95575.22;1017885;29;20035;-68
2022/12/29 01:04:25;;;;;;;0.63;0.55;;;;;;;4.04;100.00;95568.22;1018100;29;20626;-68
2022/12/29 01:04:55;;;;;;;1.73;0.93;;;;;;;4.05;100.00;95579.41;1014282;29;20021;-69
2022/12/29 01:05:26;;;;;;;2.33;0.85;;;;;;;4.07;100.00;95574.78;1013742;29;20028;-70
2022/12/29 01:05:56;;;;;;;2.33;1.10;;;;;;;4.11;100.00;95576.69;1017614;29;20035;-68
2022/12/29 01:06:27;;;;;;;1.08;0.55;;;;;;;4.10;100.00;95574.34;1014386;29;20613;-68
2022/12/29 01:06:57;;;;;;;0.98;0.80;;;;;;;4.12;100.00;95572.28;1018236;29;20035;-70
2022/12/29 01:07:28;;;;;;;0.85;0.70;;;;;;;4.09;100.00;95572.72;1017896;29;20581;-69
2022/12/29 01:07:58;;;;;;;3.75;0.95;;;;;;;4.12;100.00;95572.28;1018292;29;20024;-68
2022/12/29 01:08:29;;;;;;;3.08;1.00;;;;;;;4.06;100.00;95562.78;1018116;29;20036;-68
2022/12/29 01:10:11;;;;;;;2.22;0.88;;;;;;;4.12;100.00;95578.25;1009741;29;20036;-68
2022/12/29 01:10:41;;;;;;;1.13;0.70;;;;;;;4.11;100.00;95581.09;1015246;29;21444;-71
2022/12/29 01:11:12;;;;;;;1.05;0.68;;;;;;;4.24;100.00;95580.88;1022166;29;20291;-69
2022/12/29 01:11:42;;;;;;;2.53;0.95;;;;;;;4.21;100.00;95573.53;1021979;29;20023;-69
2022/12/29 01:12:13;;;;;;;1.55;0.73;;;;;;;4.16;100.00;95576.81;1015924;29;20016;-70
2022/12/29 01:12:44;;;;;;;0.95;0.68;;;;;;;4.18;100.00;95579.19;1010022;29;20017;-68
2022/12/29 01:13:15;;;;;;;2.33;0.95;;;;;;;4.22;100.00;95582.91;1010408;29;20072;-70
2022/12/29 01:13:45;;;;;;;3.25;0.73;;;;;;;4.21;100.00;95576.91;1010290;29;20264;-69
2022/12/29 01:14:16;;;;;;;1.75;0.57;;;;;;;4.18;100.00;95582.56;1014406;29;20561;-71
2022/12/29 01:14:47;;;;;;;0.70;0.60;;;;;;;4.18;100.00;95581.78;1018047;29;20103;-68
2022/12/29 01:15:17;;;;;;;1.98;0.80;;;;;;;4.16;100.00;95578.63;1018095;29;20023;-69
2022/12/29 01:15:51;;;;;;;2.85;1.38;;;;;;;4.09;100.00;95570.13;1021153;28;20076;-68
2022/12/29 01:16:22;;;;;;;0.80;0.70;;;;;;;4.12;100.00;95582.66;1014737;29;20024;-70
2022/12/29 01:16:52;;;;;;;3.58;0.90;;;;;;;4.06;100.00;95574.00;1018190;29;20618;-69
2022/12/29 01:17:23;;;;;;;1.10;0.70;;;;;;;4.08;100.00;95581.53;1014004;29;20020;-68
2022/12/29 01:17:53;;;;;;;0.73;0.57;;;;;;;4.04;100.00;95575.22;1017959;29;20024;-69
2022/12/29 01:18:24;;;;;;;1.13;0.77;;;;;;;4.05;100.00;95576.81;1018097;29;20533;-68
2022/12/29 01:18:55;;;;;;;0.93;0.65;;;;;;;4.04;100.00;95575.22;1010265;29;20140;-69
2022/12/29 01:19:25;;;;;;;0.60;0.57;;;;;;;3.99;100.00;95571.50;1010137;29;20336;-71
2022/12/29 01:19:56;;;;;;;0.82;0.63;;;;;;;4.00;100.00;95569.69;1013848;29;20394;-70
2022/12/29 01:20:28;;;;;;;1.10;0.55;;;;;;;4.07;100.00;95574.78;1017755;29;20027;-68
2022/12/29 01:21:03;;;;;;;0.57;0.57;;;;;;;4.02;100.00;95572.84;1014043;29;20028;-68
2022/12/29 01:21:33;;;;;;;1.02;0.63;;;;;;;3.96;100.00;95569.38;1006533;29;20353;-69
2022/12/29 01:22:04;;;;;;;0.98;0.65;;;;;;;4.01;100.00;95573.88;1011649;29;20272;-67
2022/12/29 01:22:34;;;;;;;1.50;0.68;;;;;;;3.99;100.00;95571.50;1021363;29;20511;-70
2022/12/29 01:23:04;;;;;;;1.60;0.80;;;;;;;3.94;100.00;95570.59;1018173;29;20047;-67
2022/12/29 01:23:35;;;;;;;2.33;0.82;;;;;;;3.99;100.00;95570.69;1021845;29;20066;-69
2022/12/29 01:24:06;;;;;;;1.35;0.70;;;;;;;3.99;100.00;95568.91;1021827;28;20802;-68
2022/12/29 01:24:36;;;;;;;1.30;0.80;;;;;;;4.03;100.00;95564.06;1018065;29;20027;-70
2022/12/29 01:25:07;;;;;;;2.78;0.77;;;;;;;4.04;100.00;95575.22;1018007;29;20067;-68
2022/12/29 01:25:37;;;;;;;1.67;0.70;;;;;;;4.05;100.00;95577.59;1013578;29;20028;-69
2022/12/29 01:26:11;;;;;;;5.70;0.90;;;;;;;4.17;100.00;95572.41;1013739;29;20551;-68
2022/12/29 01:26:42;;;;;;;1.63;0.70;;;;;;;4.18;100.00;95577.38;1010290;29;20021;-69
2022/12/29 01:27:12;;;;;;;1.90;0.90;;;;;;;4.18;100.00;95576.59;1014221;29;20291;-68
2022/12/29 01:27:43;;;;;;;0.70;0.50;;;;;;;4.11;100.00;95562.91;1010021;29;20025;-71
2022/12/29 01:28:14;;;;;;;1.05;0.75;;;;;;;4.20;100.00;95571.97;1014353;29;20671;-68
2022/12/29 01:28:44;;;;;;;0.95;0.75;;;;;;;4.20;100.00;95574.56;1014179;29;20016;-70
2022/12/29 01:29:15;;;;;;;1.98;0.50;;;;;;;4.12;100.00;95557.50;1018263;28;20015;-70
2022/12/29 01:29:45;;;;;;;1.08;0.65;;;;;;;4.24;100.00;95571.28;1018299;29;20019;-68
2022/12/29 01:30:16;;;;;;;0.88;0.70;;;;;;;4.25;100.00;95566.88;1017976;29;20047;-68
2022/12/29 01:30:46;;;;;;;2.65;1.05;;;;;;;4.39;100.00;95567.41;1017802;29;20066;-68
2022/12/29 01:31:17;;;;;;;0.73;0.65;;;;;;;4.37;100.00;95565.06;1018015;28;20506;-66
2022/12/29 01:31:49;;;;;;;0.85;0.50;;;;;;;4.29;100.00;95562.78;1017951;29;20020;-70
2022/12/29 01:32:19;;;;;;;1.42;0.90;;;;;;;4.28;100.00;95565.63;1008803;29;20885;-72
2022/12/29 01:32:50;;;;;;;1.52;0.70;;;;;;;4.37;100.00;95570.25;1010008;29;20324;-68
2022/12/29 01:33:20;;;;;;;0.65;0.60;;;;;;;4.38;100.00;95576.25;1014250;29;20606;-70
2022/12/29 01:33:51;;;;;;;4.05;1.00;;;;;;;4.37;100.00;95564.28;1018699;28;20184;-68
2022/12/29 01:34:21;;;;;;;1.48;0.82;;;;;;;4.41;100.00;95571.38;1021900;29;20023;-68
2022/12/29 01:34:52;;;;;;;2.47;0.85;;;;;;;4.43;100.00;95576.34;1021810;28;20036;-68
2022/12/29 01:35:22;;;;;;;1.00;0.60;;;;;;;4.45;100.00;95566.50;1012431;29;20025;-68
2022/12/29 01:35:52;;;;;;;0.80;0.77;;;;;;;4.44;100.00;95568.31;1005591;29;20052;-69
2022/12/29 01:36:23;;;;;;;0.68;0.68;;;;;;;4.45;100.00;95572.50;1010317;29;20065;-69
2022/12/29 01:36:53;;;;;;;0.50;0.47;;;;;;;4.52;100.00;95569.78;1010029;29;20067;-68
2022/12/29 01:37:24;;;;;;;4.38;1.02;;;;;;;4.54;100.00;95569.56;1018279;28;20023;-68
2022/12/29 01:37:54;;;;;;;1.25;0.57;;;;;;;4.55;100.00;95566.72;1026144;28;20015;-69
2022/12/29 01:38:25;;;;;;;3.03;0.82;;;;;;;4.53;100.00;95566.19;1023641;28;20306;-70
2022/12/29 01:38:56;;;;;;;1.00;0.70;;;;;;;4.61;100.00;95570.22;1017572;29;20091;-68
2022/12/29 01:39:26;;;;;;;2.13;0.80;;;;;;;4.59;100.00;95572.25;1018110;29;20636;-68
2022/12/29 01:39:56;;;;;;;1.13;0.63;;;;;;;4.57;100.00;95556.13;1017811;29;20071;-70
2022/12/29 01:40:28;;;;;;;1.20;0.60;;;;;;;4.67;100.00;95569.31;1018293;29;20024;-68
2022/12/29 01:40:58;;;;;;;1.20;0.60;;;;;;;4.68;100.00;95560.50;1017885;29;20202;-68
2022/12/29 01:41:29;;;;;;;0.98;0.75;;;;;;;4.70;100.00;95574.06;1021916;29;20363;-69
2022/12/29 01:41:59;;;;;;;1.42;0.70;;;;;;;4.67;100.00;95561.53;1017981;29;20020;-68
2022/12/29 01:42:30;;;;;;;2.08;0.88;;;;;;;4.71;100.00;95565.25;1018051;29;20061;-69
2022/12/29 01:43:00;;;;;;;0.77;0.60;;;;;;;4.71;100.00;95575.63;1022055;29;20019;-68
2022/12/29 01:43:46;;;;;;;0.95;0.57;;;;;;;4.70;100.00;95566.25;1018019;29;20031;-67
2022/12/29 01:44:50;;;;;;;0.68;0.63;;;;;;;4.74;100.00;95562.19;1014308;29;20044;-70
2022/12/29 01:45:21;;;;;;;0.98;0.70;;;;;;;4.73;100.00;95564.00;1016429;29;21114;-69
2022/12/29 01:45:52;;;;;;;1.05;0.70;;;;;;;4.78;100.00;95563.28;1014413;29;20244;-69
2022/12/29 01:46:26;;;;;;;0.90;0.80;;;;;;;4.78;100.00;95558.09;1017887;29;20102;-68
2022/12/29 01:46:56;;;;;;;2.22;0.68;;;;;;;4.78;100.00;95560.69;1017947;29;20020;-66
2022/12/29 01:47:41;;;;;;;2.67;1.00;;;;;;;4.78;100.00;95557.31;1014296;29;20264;-71
2022/12/29 01:48:12;;;;;;;0.88;0.50;;;;;;;4.78;100.00;95554.72;1009048;29;20073;-68
2022/12/29 01:48:42;;;;;;;1.42;0.70;;;;;;;4.80;100.00;95544.88;1010436;29;20265;-69
2022/12/29 01:49:17;;;;;;;1.13;0.80;;;;;;;4.83;100.00;95558.22;1014384;29;20051;-68
2022/12/29 01:49:47;;;;;;;1.73;0.85;;;;;;;4.79;100.00;95546.66;1015067;29;20020;-70
2022/12/29 01:50:40;;;;;;;2.30;2.10;;;;;;;4.82;100.00;95548.81;1018056;29;21004;-68
2022/12/29 01:51:10;;;;;;;1.25;0.70;;;;;;;4.86;100.00;95538.75;1009808;29;20027;-70
2022/12/29 01:51:48;;;;;;;0.50;0.43;;;;;;;4.88;100.00;95555.69;1014470;29;20249;-70
2022/12/29 01:52:19;;;;;;;0.90;0.68;;;;;;;4.88;100.00;95550.50;1018212;29;20744;-71
2022/12/29 01:53:15;;;;;;;2.10;0.60;;;;;;;4.92;100.00;95551.59;1015345;29;20280;-69
2022/12/29 01:53:45;;;;;;;1.13;0.57;;;;;;;4.92;100.00;95546.41;1013768;29;20020;-68
2022/12/29 01:54:25;;;;;;;1.42;0.57;;;;;;;4.92;100.00;95554.22;1021610;29;20270;-69
2022/12/29 01:54:56;;;;;;;4.07;0.70;;;;;;;4.78;100.00;95534.69;1022023;29;20862;-69
2022/12/29 01:55:28;;;;;;;3.90;0.80;;;;;;;4.89;100.00;95549.47;1017700;29;20028;-69
2022/12/29 01:56:01;;;;;;;1.23;0.70;;;;;;;4.88;100.00;95547.91;1013851;29;20021;-70
2022/12/29 01:56:32;;;;;;;1.40;0.68;;;;;;;4.84;100.00;95541.59;1014091;29;20271;-68
2022/12/29 01:57:04;;;;;;;1.92;0.85;;;;;;;4.83;100.00;95544.41;1014223;29;20272;-69
2022/12/29 01:57:37;;;;;;;1.58;0.95;;;;;;;4.84;100.00;95549.38;1017985;29;20024;-71
2022/12/29 01:58:08;;;;;;;1.13;0.60;;;;;;;4.85;100.00;95550.94;1010201;29;20309;-68
2022/12/29 01:58:40;;;;;;;1.23;0.80;;;;;;;4.86;100.00;95549.13;1009993;29;20882;-69
2022/12/29 01:59:14;;;;;;;0.75;0.70;;;;;;;4.87;100.00;95559.31;1014029;29;20035;-71
2022/12/29 01:59:53;;;;;;;3.10;0.68;;;;;;;4.92;100.00;95556.81;1018061;29;20263;-68
2022/12/29 02:00:24;;;;;;;1.08;0.63;;;;;;;4.89;100.00;95554.66;1018018;29;20267;-68
2022/12/29 02:00:54;;;;;;;0.70;0.63;;;;;;;4.90;100.00;95553.66;1010475;29;20249;-69
2022/12/29 02:01:25;;;;;;;1.38;0.70;;;;;;;4.91;100.00;95555.22;1008058;29;20036;-69
2022/12/29 02:01:55;;;;;;;0.65;0.50;;;;;;;4.92;100.00;95556.03;1014643;29;20429;-70
2022/12/29 02:02:26;;;;;;;0.68;0.50;;;;;;;4.87;100.00;95542.94;1018876;29;20113;-67
2022/12/29 02:02:56;;;;;;;0.70;0.60;;;;;;;4.88;100.00;95545.28;1014989;29;20012;-68
2022/12/29 02:03:26;;;;;;;3.13;0.70;;;;;;;4.91;100.00;95544.84;1015052;29;20672;-69
2022/12/29 02:03:57;;;;;;;0.88;0.47;;;;;;;4.96;100.00;95544.94;1018522;29;20016;-69
2022/12/29 02:04:29;;;;;;;1.40;0.75;;;;;;;4.96;100.00;95541.53;1014898;29;20028;-71
2022/12/29 02:05:01;;;;;;;0.47;0.43;;;;;;;5.02;100.00;95539.81;1014843;29;20024;-70
2022/12/29 02:05:51;;;;;;;1.17;0.82;;;;;;;5.00;100.00;95531.47;1020372;28;20846;-68
2022/12/29 02:06:33;;;;;;;1.50;0.70;;;;;;;5.05;100.00;95521.16;1017379;29;20342;-68
2022/12/29 02:07:05;;;;;;;5.38;0.90;;;;;;;5.06;100.00;95531.31;1015023;29;20596;-67
2022/12/29 02:07:35;;;;;;;0.82;0.60;;;;;;;5.13;100.00;95531.19;1015136;29;20272;-70
2022/12/29 02:08:06;;;;;;;1.08;0.60;;;;;;;5.11;100.00;95533.25;1014847;29;20957;-67
2022/12/29 02:08:36;;;;;;;1.08;0.63;;;;;;;5.13;100.00;95533.78;1019131;29;20028;-69
2022/12/29 02:09:07;;;;;;;1.73;0.70;;;;;;;5.20;100.00;95537.06;1019017;29;20035;-68
2022/12/29 02:09:37;;;;;;;1.00;0.50;;;;;;;5.13;100.00;95523.38;1018974;29;20028;-69
2022/12/29 02:10:08;;;;;;;0.93;0.55;;;;;;;5.19;100.00;95535.44;1011002;29;20021;-68
2022/12/29 02:10:38;;;;;;;0.93;0.60;;;;;;;5.10;100.00;95527.25;1015060;29;20063;-68
2022/12/29 02:11:09;;;;;;;1.27;0.70;;;;;;;5.16;100.00;95539.31;1014964;29;20028;-69
2022/12/29 02:11:39;;;;;;;1.00;0.70;;;;;;;5.16;100.00;95533.31;1010994;29;20032;-68
2022/12/29 02:12:10;;;;;;;1.13;0.70;;;;;;;5.11;100.00;95533.25;1010832;29;20028;-70
2022/12/29 02:12:40;;;;;;;1.17;0.80;;;;;;;5.12;100.00;95535.59;1014909;29;20035;-69
2022/12/29 02:13:10;;;;;;;2.53;0.57;;;;;;;5.05;100.00;95521.94;1015373;28;20028;-68
2022/12/29 02:13:41;;;;;;;1.08;0.70;;;;;;;5.04;100.00;95530.00;1022823;29;20441;-68
2022/12/29 02:14:12;;;;;;;1.17;0.70;;;;;;;5.03;100.00;95528.38;1022564;28;20031;-69
2022/12/29 02:14:42;;;;;;;0.98;0.70;;;;;;;5.06;100.00;95533.91;1019006;29;20023;-68
2022/12/29 02:15:13;;;;;;;0.90;0.60;;;;;;;5.06;100.00;95541.72;1014960;29;20264;-68
2022/12/29 02:16:05;;;;;;;0.68;0.45;;;;;;;5.05;100.00;95531.56;1018132;29;20016;-66
2022/12/29 02:17:12;;;;;;;1.73;0.63;;;;;;;5.02;100.00;95527.59;1021553;29;20027;-69
2022/12/29 02:17:54;;;;;;;2.05;0.60;;;;;;;4.99;100.00;95533.28;1022591;28;20283;-68
2022/12/29 02:18:48;;;;;;;0.63;0.50;;;;;;;4.95;100.00;95527.75;1022764;29;20290;-71
2022/12/29 02:19:43;;;;;;;2.78;0.52;;;;;;;4.96;100.00;95526.75;1015179;29;20269;-68
2022/12/29 02:20:23;;;;;;;3.22;0.80;;;;;;;4.97;100.00;95528.31;1018803;29;20275;-68
2022/12/29 02:21:31;;;;;;;2.45;0.90;;;;;;;4.99;100.00;95529.88;1019409;28;20345;-68
2022/12/29 02:22:19;;;;;;;3.00;0.68;;;;;;;4.99;100.00;95524.69;1016558;29;20066;-68
2022/12/29 02:23:11;;;;;;;3.28;0.80;;;;;;;4.99;100.00;95514.28;1018675;29;20331;-68
2022/12/29 02:24:15;;;;;;;0.68;0.65;;;;;;;5.00;100.00;95521.06;1019513;29;20263;-70
2022/12/29 02:25:11;;;;;;;0.52;0.47;;;;;;;5.04;100.00;95524.78;1019392;29;20286;-67
2022/12/29 02:25:57;;;;;;;1.88;0.80;;;;;;;5.05;100.00;95528.97;1022842;29;21177;-72
2022/12/29 02:26:59;;;;;;;0.93;0.43;;;;;;;5.10;100.00;95526.47;1019088;29;20338;-68
2022/12/29 02:28:05;;;;;;;1.90;0.82;;;;;;;5.12;100.00;95519.19;1014567;29;20343;-69
2022/12/29 02:28:59;;;;;;;2.88;0.95;;;;;;;5.09;100.00;95523.06;1026943;28;20904;-68
2022/12/29 02:29:39;;;;;;;1.02;0.52;;;;;;;5.18;100.00;95524.25;1027472;28;20331;-69
2022/12/29 02:30:35;;;;;;;1.17;0.55;;;;;;;5.14;100.00;95523.16;1027363;28;20264;-67
2022/12/29 02:31:26;;;;;;;0.77;0.50;;;;;;;5.21;100.00;95523.00;1019268;29;20297;-69
2022/12/29 02:32:02;;;;;;;3.30;0.68;;;;;;;5.20;100.00;95521.44;1015695;29;20265;-68
2022/12/29 02:32:49;;;;;;;0.63;0.60;;;;;;;5.17;100.00;95527.91;1017672;29;20102;-69
2022/12/29 02:33:25;;;;;;;0.95;0.55;;;;;;;5.22;100.00;95524.59;1017464;29;20272;-68
2022/12/29 02:34:10;;;;;;;2.33;0.35;;;;;;;5.23;100.00;95520.97;1019562;29;20342;-68
2022/12/29 02:35:18;;;;;;;2.60;0.70;;;;;;;5.23;100.00;95526.19;1019557;29;20271;-68
2022/12/29 02:35:56;;;;;;;1.70;0.50;;;;;;;5.16;100.00;95515.09;1018620;29;20350;-68
2022/12/29 02:36:42;;;;;;;1.38;0.60;;;;;;;5.16;100.00;95515.91;1015621;29;20284;-68
2022/12/29 02:37:24;;;;;;;0.93;0.55;;;;;;;5.22;100.00;95519.38;1023369;29;20369;-68
2022/12/29 02:38:04;;;;;;;1.02;0.50;;;;;;;5.23;100.00;95520.16;1023657;29;20271;-68
2022/12/29 02:38:40;;;;;;;1.70;0.60;;;;;;;5.22;100.00;95524.59;1019508;29;20304;-67
2022/12/29 02:39:29;;;;;;;1.10;0.60;;;;;;;5.22;100.00;95524.59;1023000;29;20085;-69
2022/12/29 02:40:24;;;;;;;1.70;0.80;;;;;;;5.22;100.00;95524.59;1020372;29;20252;-68
2022/12/29 02:41:24;;;;;;;1.25;0.80;;;;;;;5.19;100.00;95520.63;1025176;28;20306;-67
2022/12/29 02:42:08;;;;;;;4.18;0.60;;;;;;;5.18;100.00;95519.06;1021237;29;20693;-68
2022/12/29 02:42:59;;;;;;;1.10;0.50;;;;;;;5.20;100.00;95524.03;1019537;29;20260;-68
2022/12/29 02:43:36;;;;;;;1.17;0.50;;;;;;;5.16;100.00;95520.31;1015830;29;20264;-69
2022/12/29 02:44:13;;;;;;;0.47;0.43;;;;;;;5.14;100.00;95520.56;1019261;29;20299;-68
2022/12/29 02:45:03;;;;;;;1.27;0.60;;;;;;;5.13;100.00;95512.97;1015563;29;20765;-68
2022/12/29 02:45:45;;;;;;;1.10;0.60;;;;;;;5.19;100.00;95512.81;1018733;29;20797;-67
2022/12/29 02:46:15;;;;;;;0.93;0.57;;;;;;;5.20;100.00;95522.22;1019542;29;20263;-68
2022/12/29 02:47:24;;;;;;;3.53;0.57;;;;;;;5.19;100.00;95520.63;1023258;29;20390;-68
2022/12/29 02:48:16;;;;;;;0.57;0.50;;;;;;;5.23;100.00;95520.16;1021083;29;20087;-67
2022/12/29 02:49:01;;;;;;;0.90;0.50;;;;;;;5.27;100.00;95514.28;1019380;29;20284;-67
2022/12/29 02:50:00;;;;;;;0.80;0.63;;;;;;;5.27;100.00;95514.28;1020117;29;20267;-68
2022/12/29 02:50:38;;;;;;;0.60;0.60;;;;;;;5.32;100.00;95516.94;1018733;29;20284;-69
2022/12/29 02:51:12;;;;;;;0.80;0.45;;;;;;;5.28;100.00;95515.84;1016319;29;20265;-71
2022/12/29 02:51:51;;;;;;;1.30;0.50;;;;;;;5.28;100.00;95517.66;1015394;29;20268;-71
2022/12/29 02:52:31;;;;;;;1.95;0.70;;;;;;;5.31;100.00;95517.97;1019330;29;20299;-67
2022/12/29 02:53:04;;;;;;;2.35;0.68;;;;;;;5.32;100.00;95511.75;1019538;29;21056;-71
2022/12/29 02:54:42;;;;;;;1.13;0.68;;;;;;;5.37;100.00;95517.06;1019403;29;20271;-68
2022/12/29 02:55:12;;;;;;;7.63;0.85;;;;;;;5.38;100.00;95513.41;1019013;29;20272;-68
2022/12/29 02:55:49;;;;;;;0.80;0.70;;;;;;;5.35;100.00;95513.09;1014917;29;20264;-70
2022/12/29 02:56:19;;;;;;;1.15;0.68;;;;;;;5.34;100.00;95516.72;1015518;29;20020;-68
2022/12/29 02:56:50;;;;;;;1.15;0.70;;;;;;;5.31;100.00;95507.59;1016472;29;21134;-68
2022/12/29 02:57:20;;;;;;;0.75;0.55;;;;;;;5.31;100.00;95512.00;1020108;29;20055;-68
2022/12/29 02:58:16;;;;;;;2.65;0.70;;;;;;;5.23;100.00;95505.38;1019335;29;20114;-69
2022/12/29 02:58:47;;;;;;;1.23;0.68;;;;;;;5.26;100.00;95510.06;1019255;29;20111;-67
2022/12/29 02:59:17;;;;;;;1.88;0.90;;;;;;;5.25;100.00;95498.09;1015556;29;20267;-69
2022/12/29 02:59:52;;;;;;;1.65;0.50;;;;;;;5.27;100.00;95511.69;1018950;29;20024;-68
2022/12/29 03:00:23;;;;;;;0.73;0.70;;;;;;;5.28;100.00;95518.44;1017234;29;20020;-69
2022/12/29 03:01:15;;;;;;;1.05;0.80;;;;;;;5.27;100.00;95506.47;1015630;29;20264;-69
2022/12/29 03:02:20;;;;;;;1.50;0.60;;;;;;;5.26;100.00;95515.28;1019413;29;20032;-68
2022/12/29 03:03:11;;;;;;;2.22;0.55;;;;;;;5.27;100.00;95505.69;1027337;28;20270;-68
2022/12/29 03:03:48;;;;;;;1.42;0.57;;;;;;;5.26;100.00;95511.91;1019539;29;20654;-70
2022/12/29 03:04:56;;;;;;;0.82;0.60;;;;;;;5.27;100.00;95511.69;1019311;29;20271;-68
2022/12/29 03:05:46;;;;;;;1.10;0.50;;;;;;;5.19;100.00;95507.63;1018953;29;20654;-68
2022/12/29 03:06:25;;;;;;;4.65;0.88;;;;;;;5.20;100.00;95505.84;1019392;29;20282;-68
2022/12/29 03:07:03;;;;;;;2.05;0.60;;;;;;;5.15;100.00;95501.31;1019443;29;20260;-68
2022/12/29 03:07:36;;;;;;;0.93;0.50;;;;;;;5.19;100.00;95506.84;1019550;29;20032;-68
2022/12/29 03:08:31;;;;;;;0.50;0.40;;;;;;;5.18;100.00;95507.88;1021866;29;20263;-68
2022/12/29 03:09:35;;;;;;;1.38;0.68;;;;;;;5.18;100.00;95507.88;1019272;29;20259;-72
2022/12/29 03:10:05;;;;;;;0.80;0.43;;;;;;;5.17;100.00;95516.72;1017897;29;20869;-68
2022/12/29 03:10:44;;;;;;;1.38;0.60;;;;;;;5.18;100.00;95507.88;1023751;28;20255;-69
2022/12/29 03:12:19;;;;;;;2.05;0.50;;;;;;;5.15;100.00;95509.13;1015224;29;20332;-68
2022/12/29 03:16:05;;;;;;;1.25;0.50;;;;;;;5.22;100.00;95503.78;1014753;29;20356;-68
2022/12/29 03:16:44;;;;;;;1.30;0.60;;;;;;;5.22;100.00;95495.97;1023212;29;20290;-68
2022/12/29 03:17:29;;;;;;;1.42;0.55;;;;;;;5.22;100.00;95503.00;1015489;29;20276;-69
2022/12/29 03:18:05;;;;;;;5.00;0.70;;;;;;;5.25;100.00;95500.72;1011605;29;20265;-68
2022/12/29 03:18:58;;;;;;;1.63;0.88;;;;;;;5.20;100.00;95491.03;1011722;29;20273;-68